sensor_id;sensor_type;location;lat;lon;timestamp;pressure;altitude;pressure_sealevel;temperature;humidity
51439;BME280;38816;51.142;-0.974;2023-08-12T00:00:06;100127.94;;;14.61;100.00
51439;BME280;38816;51.142;-0.974;2023-08-12T00:02:41;100121.03;;;14.60;100.00
51439;BME280;38816;51.142;-0.974;2023-08-12T00:05:07;100123.59;;;14.58;100.00
51439;BME280;38816;51.142;-0.974;2023-08-12T00:07:34;100119.31;;;14.53;100.00
51439;BME280;38816;51.142;-0.974;2023-08-12T00:10:01;100114.13;;;14.50;100.00
51439;BME280;38816;51.142;-0.974;2023-08-12T00:12:28;100115.00;;;14.49;100.00
51439;BME280;38816;51.142;-0.974;2023-08-12T00:14:54;100115.00;;;14.49;100.00
51439;BME280;38816;51.142;-0.974;2023-08-12T00:17:20;100119.31;;;14.50;100.00
51439;BME280;38816;51.142;-0.974;2023-08-12T00:19:45;100115.00;;;14.52;100.00
51439;BME280;38816;51.142;-0.974;2023-08-12T00:22:11;100112.44;;;14.55;100.00
51439;BME280;38816;51.142;-0.974;2023-08-12T00:24:38;100110.69;;;14.57;100.00
51439;BME280;38816;51.142;-0.974;2023-08-12T00:27:03;100111.56;;;14.60;100.00
51439;BME280;38816;51.142;-0.974;2023-08-12T00:29:29;100111.56;;;14.63;100.00
51439;BME280;38816;51.142;-0.974;2023-08-12T00:31:55;100114.13;;;14.65;100.00
51439;BME280;38816;51.142;-0.974;2023-08-12T00:34:21;100114.13;;;14.68;100.00
51439;BME280;38816;51.142;-0.974;2023-08-12T00:36:46;100107.22;;;14.68;100.00
51439;BME280;38816;51.142;-0.974;2023-08-12T00:39:12;100114.09;;;14.74;100.00
51439;BME280;38816;51.142;-0.974;2023-08-12T00:41:37;100110.63;;;14.81;100.00
51439;BME280;38816;51.142;-0.974;2023-08-12T00:44:03;100104.56;;;14.90;100.00
51439;BME280;38816;51.142;-0.974;2023-08-12T00:46:29;100098.50;;;14.92;100.00
51439;BME280;38816;51.142;-0.974;2023-08-12T00:48:55;100108.84;;;14.99;100.00
51439;BME280;38816;51.142;-0.974;2023-08-12T00:51:20;100101.06;;;15.03;100.00
51439;BME280;38816;51.142;-0.974;2023-08-12T00:53:46;100104.50;;;15.02;100.00
51439;BME280;38816;51.142;-0.974;2023-08-12T00:56:13;100101.06;;;15.06;100.00
51439;BME280;38816;51.142;-0.974;2023-08-12T00:58:39;100096.72;;;15.07;100.00
51439;BME280;38816;51.142;-0.974;2023-08-12T01:01:06;100098.44;;;15.11;100.00
51439;BME280;38816;51.142;-0.974;2023-08-12T01:03:31;100095.84;;;15.14;100.00
51439;BME280;38816;51.142;-0.974;2023-08-12T01:05:57;100093.22;;;15.17;100.00
51439;BME280;38816;51.142;-0.974;2023-08-12T01:08:28;100104.44;;;15.24;100.00
51439;BME280;38816;51.142;-0.974;2023-08-12T01:11:00;100092.34;;;15.24;100.00
51439;BME280;38816;51.142;-0.974;2023-08-12T01:16:26;100083.66;;;15.30;100.00
51439;BME280;38816;51.142;-0.974;2023-08-12T01:18:54;100082.84;;;15.22;100.00
51439;BME280;38816;51.142;-0.974;2023-08-12T01:21:20;100078.56;;;15.17;100.00
51439;BME280;38816;51.142;-0.974;2023-08-12T01:23:46;100076.03;;;15.07;100.00
51439;BME280;38816;51.142;-0.974;2023-08-12T01:26:11;100079.53;;;14.92;100.00
51439;BME280;38816;51.142;-0.974;2023-08-12T01:28:37;100083.03;;;14.86;100.00
51439;BME280;38816;51.142;-0.974;2023-08-12T01:31:11;100077.81;;;14.89;100.00
51439;BME280;38816;51.142;-0.974;2023-08-12T01:34:00;100079.53;;;14.95;100.00
51439;BME280;38816;51.142;-0.974;2023-08-12T01:36:29;100076.94;;;14.97;100.00
51439;BME280;38816;51.142;-0.974;2023-08-12T01:38:58;100084.69;;;14.98;100.00
51439;BME280;38816;51.142;-0.974;2023-08-12T01:41:25;100086.38;;;15.04;100.00
51439;BME280;38816;51.142;-0.974;2023-08-12T01:43:51;100082.91;;;15.11;100.00
51439;BME280;38816;51.142;-0.974;2023-08-12T01:46:17;100078.59;;;15.14;100.00
51439;BME280;38816;51.142;-0.974;2023-08-12T01:48:42;100085.47;;;15.18;100.00
51439;BME280;38816;51.142;-0.974;2023-08-12T01:51:08;100090.63;;;15.20;100.00
51439;BME280;38816;51.142;-0.974;2023-08-12T01:53:33;100084.63;;;15.18;100.00
51439;BME280;38816;51.142;-0.974;2023-08-12T01:55:59;100092.38;;;15.19;100.00
51439;BME280;38816;51.142;-0.974;2023-08-12T01:58:24;100088.88;;;15.24;100.00
51439;BME280;38816;51.142;-0.974;2023-08-12T02:00:52;100090.59;;;15.25;100.00
51439;BME280;38816;51.142;-0.974;2023-08-12T02:03:17;100090.63;;;15.23;100.00
51439;BME280;38816;51.142;-0.974;2023-08-12T02:05:43;100086.28;;;15.25;100.00
51439;BME280;38816;51.142;-0.974;2023-08-12T02:08:08;100087.19;;;15.23;100.00
51439;BME280;38816;51.142;-0.974;2023-08-12T02:10:34;100077.63;;;15.26;100.00
51439;BME280;38816;51.142;-0.974;2023-08-12T02:13:00;100076.78;;;15.27;100.00
51439;BME280;38816;51.142;-0.974;2023-08-12T02:15:25;100070.72;;;15.31;100.00
51439;BME280;38816;51.142;-0.974;2023-08-12T02:17:51;100072.41;;;15.38;100.00
51439;BME280;38816;51.142;-0.974;2023-08-12T02:20:16;100072.38;;;15.41;100.00
51439;BME280;38816;51.142;-0.974;2023-08-12T02:22:42;100069.78;;;15.40;100.00
51439;BME280;38816;51.142;-0.974;2023-08-12T02:25:07;100068.94;;;15.39;100.00
51439;BME280;38816;51.142;-0.974;2023-08-12T02:27:33;100071.53;;;15.39;100.00
51439;BME280;38816;51.142;-0.974;2023-08-12T02:29:58;100068.06;;;15.39;100.00
51439;BME280;38816;51.142;-0.974;2023-08-12T02:32:24;100064.63;;;15.38;100.00
51439;BME280;38816;51.142;-0.974;2023-08-12T02:34:49;100066.34;;;15.39;100.00
51439;BME280;38816;51.142;-0.974;2023-08-12T02:37:15;100070.63;;;15.43;100.00
51439;BME280;38816;51.142;-0.974;2023-08-12T02:39:40;100062.84;;;15.47;100.00
51439;BME280;38816;51.142;-0.974;2023-08-12T02:42:05;100056.81;;;15.46;100.00
51439;BME280;38816;51.142;-0.974;2023-08-12T02:44:31;100051.63;;;15.48;100.00
51439;BME280;38816;51.142;-0.974;2023-08-12T02:46:56;100055.06;;;15.48;100.00
51439;BME280;38816;51.142;-0.974;2023-08-12T02:49:22;100049.03;;;15.46;100.00
51439;BME280;38816;51.142;-0.974;2023-08-12T02:51:47;100060.25;;;15.48;100.00
51439;BME280;38816;51.142;-0.974;2023-08-12T02:54:13;100056.78;;;15.48;100.00
51439;BME280;38816;51.142;-0.974;2023-08-12T02:56:38;100050.78;;;15.45;100.00
51439;BME280;38816;51.142;-0.974;2023-08-12T02:59:04;100049.91;;;15.47;100.00
51439;BME280;38816;51.142;-0.974;2023-08-12T03:01:29;100050.75;;;15.49;100.00
51439;BME280;38816;51.142;-0.974;2023-08-12T03:03:55;100042.13;;;15.50;100.00
51439;BME280;38816;51.142;-0.974;2023-08-12T03:06:20;100044.66;;;15.53;100.00
51439;BME280;38816;51.142;-0.974;2023-08-12T03:08:46;100039.47;;;15.56;100.00
51439;BME280;38816;51.142;-0.974;2023-08-12T03:11:12;100039.50;;;15.53;100.00
51439;BME280;38816;51.142;-0.974;2023-08-12T03:13:37;100035.16;;;15.53;100.00
51439;BME280;38816;51.142;-0.974;2023-08-12T03:16:03;100034.31;;;15.54;100.00
51439;BME280;38816;51.142;-0.974;2023-08-12T03:18:28;100032.59;;;15.55;100.00
51439;BME280;38816;51.142;-0.974;2023-08-12T03:20:54;100032.59;;;15.55;100.00
51439;BME280;38816;51.142;-0.974;2023-08-12T03:23:19;100033.44;;;15.52;100.00
51439;BME280;38816;51.142;-0.974;2023-08-12T03:25:47;100026.53;;;15.53;100.00
51439;BME280;38816;51.142;-0.974;2023-08-12T03:28:12;100023.09;;;15.54;100.00
51439;BME280;38816;51.142;-0.974;2023-08-12T03:30:38;100021.38;;;15.51;100.00
51439;BME280;38816;51.142;-0.974;2023-08-12T03:33:03;100014.47;;;15.49;100.00
51439;BME280;38816;51.142;-0.974;2023-08-12T03:35:29;100017.06;;;15.49;100.00
51439;BME280;38816;51.142;-0.974;2023-08-12T03:37:54;100024.88;;;15.45;100.00
51439;BME280;38816;51.142;-0.974;2023-08-12T03:40:20;100017.09;;;15.47;100.00
51439;BME280;38816;51.142;-0.974;2023-08-12T03:42:45;100014.50;;;15.47;100.00
51439;BME280;38816;51.142;-0.974;2023-08-12T03:45:11;100015.34;;;15.48;100.00
51439;BME280;38816;51.142;-0.974;2023-08-12T03:47:36;100013.63;;;15.50;100.00
51439;BME280;38816;51.142;-0.974;2023-08-12T03:50:02;100001.50;;;15.52;100.00
51439;BME280;38816;51.142;-0.974;2023-08-12T03:52:27;100001.50;;;15.52;100.00
51439;BME280;38816;51.142;-0.974;2023-08-12T03:54:53;100002.41;;;15.49;100.00
51439;BME280;38816;51.142;-0.974;2023-08-12T03:57:18;100007.59;;;15.46;100.00
51439;BME280;38816;51.142;-0.974;2023-08-12T03:59:44;100003.31;;;15.42;100.00
51439;BME280;38816;51.142;-0.974;2023-08-12T04:02:09;100004.22;;;15.33;100.00
51439;BME280;38816;51.142;-0.974;2023-08-12T04:04:34;100004.28;;;15.26;100.00
51439;BME280;38816;51.142;-0.974;2023-08-12T04:07:00;100004.31;;;15.23;100.00
51439;BME280;38816;51.142;-0.974;2023-08-12T04:09:25;99991.34;;;15.21;100.00
51439;BME280;38816;51.142;-0.974;2023-08-12T04:11:51;99993.97;;;15.18;100.00
51439;BME280;38816;51.142;-0.974;2023-08-12T04:14:16;99989.69;;;15.12;100.00
51439;BME280;38816;51.142;-0.974;2023-08-12T04:16:42;99985.44;;;15.05;100.00
51439;BME280;38816;51.142;-0.974;2023-08-12T04:19:07;99983.72;;;14.98;100.00
51439;BME280;38816;51.142;-0.974;2023-08-12T04:21:33;99986.34;;;14.93;100.00
51439;BME280;38816;51.142;-0.974;2023-08-12T04:23:58;99982.03;;;14.92;100.00
51439;BME280;38816;51.142;-0.974;2023-08-12T04:26:23;99988.06;;;14.94;100.00
51439;BME280;38816;51.142;-0.974;2023-08-12T04:28:49;99982.84;;;15.02;100.00
51439;BME280;38816;51.142;-0.974;2023-08-12T04:31:14;99975.06;;;15.07;100.00
51439;BME280;38816;51.142;-0.974;2023-08-12T04:33:40;99990.56;;;15.14;100.00
51439;BME280;38816;51.142;-0.974;2023-08-12T04:36:05;99984.47;;;15.20;100.00
51439;BME280;38816;51.142;-0.974;2023-08-12T04:38:31;99982.72;;;15.20;100.00
51439;BME280;38816;51.142;-0.974;2023-08-12T04:40:57;99978.41;;;15.23;100.00
51439;BME280;38816;51.142;-0.974;2023-08-12T04:43:22;99981.81;;;15.26;100.00
51439;BME280;38816;51.142;-0.974;2023-08-12T04:45:48;99986.13;;;15.29;100.00
51439;BME280;38816;51.142;-0.974;2023-08-12T04:48:14;99991.28;;;15.30;100.00
51439;BME280;38816;51.142;-0.974;2023-08-12T04:50:41;99986.97;;;15.34;100.00
51439;BME280;38816;51.142;-0.974;2023-08-12T04:53:06;99981.75;;;15.38;100.00
51439;BME280;38816;51.142;-0.974;2023-08-12T04:55:32;99976.53;;;15.41;100.00
51439;BME280;38816;51.142;-0.974;2023-08-12T04:57:58;99968.78;;;15.41;100.00
51439;BME280;38816;51.142;-0.974;2023-08-12T05:00:23;99967.88;;;15.45;100.00
51439;BME280;38816;51.142;-0.974;2023-08-12T05:02:49;99971.31;;;15.49;100.00
51439;BME280;38816;51.142;-0.974;2023-08-12T05:05:14;99976.47;;;15.54;100.00
51439;BME280;38816;51.142;-0.974;2023-08-12T05:07:40;99970.38;;;15.53;100.00
51439;BME280;38816;51.142;-0.974;2023-08-12T05:10:06;99962.63;;;15.53;100.00
51439;BME280;38816;51.142;-0.974;2023-08-12T05:12:31;99960.06;;;15.49;100.00
51439;BME280;38816;51.142;-0.974;2023-08-12T05:14:57;99965.25;;;15.49;100.00
51439;BME280;38816;51.142;-0.974;2023-08-12T05:17:22;99962.66;;;15.49;100.00
51439;BME280;38816;51.142;-0.974;2023-08-12T05:19:48;99960.06;;;15.49;100.00
51439;BME280;38816;51.142;-0.974;2023-08-12T05:22:13;99960.94;;;15.48;100.00
51439;BME280;38816;51.142;-0.974;2023-08-12T05:24:39;99961.00;;;15.44;100.00
51439;BME280;38816;51.142;-0.974;2023-08-12T05:27:04;99959.28;;;15.40;100.00
51439;BME280;38816;51.142;-0.974;2023-08-12T05:29:30;99954.16;;;15.33;100.00
51439;BME280;38816;51.142;-0.974;2023-08-12T05:31:56;99951.63;;;15.25;100.00
51439;BME280;38816;51.142;-0.974;2023-08-12T05:34:21;99953.38;;;15.20;100.00
51439;BME280;38816;51.142;-0.974;2023-08-12T05:36:47;99951.72;;;15.14;100.00
51439;BME280;38816;51.142;-0.974;2023-08-12T05:39:13;99950.88;;;15.11;100.00
51439;BME280;38816;51.142;-0.974;2023-08-12T05:41:38;99948.28;;;15.11;100.00
51439;BME280;38816;51.142;-0.974;2023-08-12T05:44:07;99954.34;;;15.10;100.00
51439;BME280;38816;51.142;-0.974;2023-08-12T05:46:32;99956.91;;;15.11;100.00
51439;BME280;38816;51.142;-0.974;2023-08-12T05:48:58;99958.56;;;15.17;100.00
51439;BME280;38816;51.142;-0.974;2023-08-12T05:51:23;99958.50;;;15.29;100.00
51439;BME280;38816;51.142;-0.974;2023-08-12T05:53:49;99960.09;;;15.44;100.00
51439;BME280;38816;51.142;-0.974;2023-08-12T05:56:14;99966.91;;;15.59;100.00
51439;BME280;38816;51.142;-0.974;2023-08-12T05:58:40;99965.09;;;15.73;100.00
51439;BME280;38816;51.142;-0.974;2023-08-12T06:01:05;99958.06;;;15.86;100.00
51439;BME280;38816;51.142;-0.974;2023-08-12T06:03:30;99960.53;;;16.00;100.00
51439;BME280;38816;51.142;-0.974;2023-08-12T06:05:56;99960.31;;;16.18;100.00
51439;BME280;38816;51.142;-0.974;2023-08-12T06:08:21;99956.69;;;16.33;100.00
51439;BME280;38816;51.142;-0.974;2023-08-12T06:10:47;99962.66;;;16.41;100.00
51439;BME280;38816;51.142;-0.974;2023-08-12T06:13:13;99957.41;;;16.45;100.00
51439;BME280;38816;51.142;-0.974;2023-08-12T06:15:41;99972.09;;;16.48;100.00
51439;BME280;38816;51.142;-0.974;2023-08-12T06:18:07;99968.56;;;16.54;100.00
51439;BME280;38816;51.142;-0.974;2023-08-12T06:20:32;99971.06;;;16.60;100.00
51439;BME280;38816;51.142;-0.974;2023-08-12T06:22:58;99965.75;;;16.69;100.00
51439;BME280;38816;51.142;-0.974;2023-08-12T06:25:24;99960.53;;;16.75;100.00
51439;BME280;38816;51.142;-0.974;2023-08-12T06:27:49;99963.91;;;16.82;100.00
51439;BME280;38816;51.142;-0.974;2023-08-12T06:30:14;99961.16;;;16.91;100.00
51439;BME280;38816;51.142;-0.974;2023-08-12T06:32:40;99968.00;;;16.98;100.00
51439;BME280;38816;51.142;-0.974;2023-08-12T06:35:06;99965.25;;;17.09;100.00
51439;BME280;38816;51.142;-0.974;2023-08-12T06:37:32;99959.78;;;17.27;100.00
51439;BME280;38816;51.142;-0.974;2023-08-12T06:39:57;99961.41;;;17.34;100.00
51439;BME280;38816;51.142;-0.974;2023-08-12T06:42:23;99958.81;;;17.33;100.00
51439;BME280;38816;51.142;-0.974;2023-08-12T06:44:56;99962.34;;;17.29;100.00
51439;BME280;38816;51.142;-0.974;2023-08-12T06:47:22;99971.13;;;17.20;100.00
51439;BME280;38816;51.142;-0.974;2023-08-12T06:49:47;99961.63;;;17.20;100.00
51439;BME280;38816;51.142;-0.974;2023-08-12T06:52:13;99961.72;;;17.13;100.00
51439;BME280;38816;51.142;-0.974;2023-08-12T06:54:38;99968.72;;;17.08;100.00
51439;BME280;38816;51.142;-0.974;2023-08-12T06:57:04;99972.28;;;17.01;100.00
51439;BME280;38816;51.142;-0.974;2023-08-12T06:59:29;99968.00;;;16.96;100.00
51439;BME280;38816;51.142;-0.974;2023-08-12T07:01:55;99975.84;;;16.93;100.00
51439;BME280;38816;51.142;-0.974;2023-08-12T07:04:21;99969.63;;;17.05;100.00
51439;BME280;38816;51.142;-0.974;2023-08-12T07:06:46;99969.34;;;17.24;100.00
51439;BME280;38816;51.142;-0.974;2023-08-12T07:09:12;99959.50;;;17.44;100.00
51439;BME280;38816;51.142;-0.974;2023-08-12T07:11:38;99965.56;;;17.44;100.00
51439;BME280;38816;51.142;-0.974;2023-08-12T07:14:03;99963.09;;;17.35;100.00
51439;BME280;38816;51.142;-0.974;2023-08-12T07:16:29;99955.50;;;17.25;100.00
51439;BME280;38816;51.142;-0.974;2023-08-12T07:18:54;99961.53;;;17.24;100.00
51439;BME280;38816;51.142;-0.974;2023-08-12T07:21:20;99953.66;;;17.31;100.00
51439;BME280;38816;51.142;-0.974;2023-08-12T07:23:45;99953.59;;;17.33;100.00
51439;BME280;38816;51.142;-0.974;2023-08-12T07:26:11;99959.59;;;17.39;100.00
51439;BME280;38816;51.142;-0.974;2023-08-12T07:28:36;99950.94;;;17.39;100.00
51439;BME280;38816;51.142;-0.974;2023-08-12T07:31:01;99955.97;;;17.46;100.00
51439;BME280;38816;51.142;-0.974;2023-08-12T07:33:27;99948.84;;;17.61;100.00
51439;BME280;38816;51.142;-0.974;2023-08-12T07:35:52;99953.69;;;17.82;100.00
51439;BME280;38816;51.142;-0.974;2023-08-12T07:38:18;99954.31;;;17.95;100.00
51439;BME280;38816;51.142;-0.974;2023-08-12T07:40:43;99947.53;;;17.88;100.00
51439;BME280;38816;51.142;-0.974;2023-08-12T07:43:09;99954.75;;;17.70;100.00
51439;BME280;38816;51.142;-0.974;2023-08-12T07:45:34;99949.75;;;17.58;100.00
51439;BME280;38816;51.142;-0.974;2023-08-12T07:48:00;99955.00;;;17.54;100.00
51439;BME280;38816;51.142;-0.974;2023-08-12T07:50:25;99964.63;;;17.49;100.00
51439;BME280;38816;51.142;-0.974;2023-08-12T07:52:51;99962.97;;;17.44;100.00
51439;BME280;38816;51.142;-0.974;2023-08-12T07:55:17;99968.94;;;17.50;100.00
51439;BME280;38816;51.142;-0.974;2023-08-12T07:57:44;99969.41;;;17.76;100.00
51439;BME280;38816;51.142;-0.974;2023-08-12T08:00:10;99970.53;;;18.09;100.00
51439;BME280;38816;51.142;-0.974;2023-08-12T08:02:35;99955.94;;;18.45;100.00
51439;BME280;38816;51.142;-0.974;2023-08-12T08:05:01;99968.38;;;18.75;100.00
51439;BME280;38816;51.142;-0.974;2023-08-12T08:07:27;99953.25;;;18.92;100.00
51439;BME280;38816;51.142;-0.974;2023-08-12T08:09:53;99950.81;;;18.84;100.00
51439;BME280;38816;51.142;-0.974;2023-08-12T08:12:19;99949.25;;;18.76;100.00
51439;BME280;38816;51.142;-0.974;2023-08-12T08:14:44;99956.13;;;18.80;100.00
51439;BME280;38816;51.142;-0.974;2023-08-12T08:17:10;99961.19;;;18.87;100.00
51439;BME280;38816;51.142;-0.974;2023-08-12T08:19:35;99955.13;;;18.85;100.00
51439;BME280;38816;51.142;-0.974;2023-08-12T08:22:01;99957.03;;;18.77;100.00
51439;BME280;38816;51.142;-0.974;2023-08-12T08:24:26;99949.84;;;18.88;100.00
51439;BME280;38816;51.142;-0.974;2023-08-12T08:26:52;99957.72;;;18.87;100.00
51439;BME280;38816;51.142;-0.974;2023-08-12T08:29:17;99956.78;;;18.89;100.00
51439;BME280;38816;51.142;-0.974;2023-08-12T08:31:43;99948.53;;;19.09;100.00
51439;BME280;38816;51.142;-0.974;2023-08-12T08:34:08;99959.09;;;19.39;100.00
51439;BME280;38816;51.142;-0.974;2023-08-12T08:36:35;99957.66;;;19.63;100.00
51439;BME280;38816;51.142;-0.974;2023-08-12T08:39:00;99960.75;;;19.79;100.00
51439;BME280;38816;51.142;-0.974;2023-08-12T08:41:28;99945.53;;;19.94;100.00
51439;BME280;38816;51.142;-0.974;2023-08-12T08:43:59;99958.84;;;20.18;100.00
51439;BME280;38816;51.142;-0.974;2023-08-12T08:46:26;99945.75;;;20.51;99.62
51439;BME280;38816;51.142;-0.974;2023-08-12T08:48:52;99943.31;;;20.74;97.68
51439;BME280;38816;51.142;-0.974;2023-08-12T08:51:19;99941.34;;;20.82;95.02
51439;BME280;38816;51.142;-0.974;2023-08-12T08:53:46;99940.38;;;20.85;94.57
51439;BME280;38816;51.142;-0.974;2023-08-12T08:56:12;99938.22;;;20.97;94.98
51439;BME280;38816;51.142;-0.974;2023-08-12T08:58:38;99946.06;;;20.97;93.22
51439;BME280;38816;51.142;-0.974;2023-08-12T09:01:06;99943.88;;;21.12;93.10
51439;BME280;38816;51.142;-0.974;2023-08-12T09:03:35;99946.69;;;21.34;91.62
51439;BME280;38816;51.142;-0.974;2023-08-12T09:06:03;99945.97;;;21.29;88.66
51439;BME280;38816;51.142;-0.974;2023-08-12T09:08:31;99945.06;;;21.03;88.33
51439;BME280;38816;51.142;-0.974;2023-08-12T09:10:58;99938.38;;;20.93;91.18
51439;BME280;38816;51.142;-0.974;2023-08-12T09:13:24;99947.81;;;20.98;91.33
51439;BME280;38816;51.142;-0.974;2023-08-12T09:15:50;99949.31;;;21.06;91.27
51439;BME280;38816;51.142;-0.974;2023-08-12T09:18:16;99947.59;;;21.05;91.26
51439;BME280;38816;51.142;-0.974;2023-08-12T09:20:42;99956.25;;;21.07;90.49
51439;BME280;38816;51.142;-0.974;2023-08-12T09:23:09;99952.41;;;20.90;90.11
51439;BME280;38816;51.142;-0.974;2023-08-12T09:25:41;99960.81;;;20.72;92.03
51439;BME280;38816;51.142;-0.974;2023-08-12T09:28:09;99958.34;;;20.67;93.74
51439;BME280;38816;51.142;-0.974;2023-08-12T09:30:34;99958.22;;;20.70;93.72
51439;BME280;38816;51.142;-0.974;2023-08-12T09:33:02;99968.31;;;20.83;93.90
51439;BME280;38816;51.142;-0.974;2023-08-12T09:35:39;99956.53;;;20.97;92.44
51439;BME280;38816;51.142;-0.974;2023-08-12T09:38:10;99966.19;;;20.95;90.83
51439;BME280;38816;51.142;-0.974;2023-08-12T09:40:36;99955.31;;;20.81;91.61
51439;BME280;38816;51.142;-0.974;2023-08-12T09:43:03;99958.78;;;20.80;92.18
51439;BME280;38816;51.142;-0.974;2023-08-12T09:45:30;99959.00;;;20.74;93.03
51439;BME280;38816;51.142;-0.974;2023-08-12T09:47:56;99963.06;;;20.55;94.04
51439;BME280;38816;51.142;-0.974;2023-08-12T09:50:22;99962.00;;;20.60;95.17
51439;BME280;38816;51.142;-0.974;2023-08-12T09:52:48;99962.38;;;20.78;94.16
51439;BME280;38816;51.142;-0.974;2023-08-12T09:55:19;99958.41;;;21.20;96.09
51439;BME280;38816;51.142;-0.974;2023-08-12T09:57:48;99959.13;;;21.54;93.43
51439;BME280;38816;51.142;-0.974;2023-08-12T10:00:17;99963.75;;;21.72;92.69
51439;BME280;38816;51.142;-0.974;2023-08-12T10:02:44;99970.63;;;21.74;91.95
51439;BME280;38816;51.142;-0.974;2023-08-12T10:05:31;99961.69;;;21.55;90.23
51439;BME280;38816;51.142;-0.974;2023-08-12T10:07:58;99977.69;;;20.90;91.92
51439;BME280;38816;51.142;-0.974;2023-08-12T10:10:24;99981.00;;;20.34;97.96
51439;BME280;38816;51.142;-0.974;2023-08-12T10:12:51;99972.63;;;19.90;100.00
51439;BME280;38816;51.142;-0.974;2023-08-12T10:15:17;99978.75;;;19.52;100.00
51439;BME280;38816;51.142;-0.974;2023-08-12T10:17:43;99976.94;;;19.20;100.00
51439;BME280;38816;51.142;-0.974;2023-08-12T10:20:12;99977.03;;;19.15;100.00
51439;BME280;38816;51.142;-0.974;2023-08-12T10:22:39;99982.47;;;19.05;100.00
51439;BME280;38816;51.142;-0.974;2023-08-12T10:25:07;99989.53;;;19.00;100.00
51439;BME280;38816;51.142;-0.974;2023-08-12T10:27:34;99980.66;;;19.10;100.00
51439;BME280;38816;51.142;-0.974;2023-08-12T10:30:03;99980.06;;;19.34;100.00
51439;BME280;38816;51.142;-0.974;2023-08-12T10:32:28;99972.44;;;19.64;100.00
51439;BME280;38816;51.142;-0.974;2023-08-12T10:34:56;99978.47;;;19.98;100.00
51439;BME280;38816;51.142;-0.974;2023-08-12T10:37:23;99968.19;;;20.25;100.00
51439;BME280;38816;51.142;-0.974;2023-08-12T10:39:49;99968.34;;;20.52;100.00
51439;BME280;38816;51.142;-0.974;2023-08-12T10:42:42;99974.38;;;20.83;100.00
51439;BME280;38816;51.142;-0.974;2023-08-12T10:45:08;99967.09;;;20.94;100.00
51439;BME280;38816;51.142;-0.974;2023-08-12T10:47:43;99947.31;;;21.14;100.00
51439;BME280;38816;51.142;-0.974;2023-08-12T10:50:19;99951.16;;;21.30;100.00
51439;BME280;38816;51.142;-0.974;2023-08-12T10:52:45;99953.88;;;21.27;100.00
51439;BME280;38816;51.142;-0.974;2023-08-12T10:55:25;99937.63;;;21.17;100.00
51439;BME280;38816;51.142;-0.974;2023-08-12T10:57:53;99948.69;;;20.97;100.00
51439;BME280;38816;51.142;-0.974;2023-08-12T11:00:23;99947.03;;;20.67;100.00
51439;BME280;38816;51.142;-0.974;2023-08-12T11:02:50;99964.84;;;20.53;100.00
51439;BME280;38816;51.142;-0.974;2023-08-12T11:05:16;99965.06;;;20.43;100.00
51439;BME280;38816;51.142;-0.974;2023-08-12T11:10:18;99971.19;;;20.42;100.00
51439;BME280;38816;51.142;-0.974;2023-08-12T11:15:16;99974.50;;;20.18;100.00
51439;BME280;38816;51.142;-0.974;2023-08-12T11:17:43;99973.97;;;20.05;100.00
51439;BME280;38816;51.142;-0.974;2023-08-12T11:20:12;99965.19;;;20.08;100.00
51439;BME280;38816;51.142;-0.974;2023-08-12T11:22:39;99970.13;;;20.18;100.00
51439;BME280;38816;51.142;-0.974;2023-08-12T11:25:07;99972.50;;;20.26;100.00
51439;BME280;38816;51.142;-0.974;2023-08-12T11:27:47;99979.28;;;20.33;100.00
51439;BME280;38816;51.142;-0.974;2023-08-12T11:30:17;99970.41;;;20.08;100.00
51439;BME280;38816;51.142;-0.974;2023-08-12T11:32:45;99972.28;;;19.70;100.00
51439;BME280;38816;51.142;-0.974;2023-08-12T11:35:12;99970.03;;;19.55;100.00
51439;BME280;38816;51.142;-0.974;2023-08-12T11:37:39;99966.25;;;19.68;100.00
51439;BME280;38816;51.142;-0.974;2023-08-12T11:40:06;99967.25;;;19.96;100.00
51439;BME280;38816;51.142;-0.974;2023-08-12T11:42:34;99969.81;;;20.29;100.00
51439;BME280;38816;51.142;-0.974;2023-08-12T11:45:00;99963.34;;;20.42;100.00
51439;BME280;38816;51.142;-0.974;2023-08-12T11:47:25;99954.63;;;20.43;100.00
51439;BME280;38816;51.142;-0.974;2023-08-12T11:49:54;99941.97;;;20.61;100.00
51439;BME280;38816;51.142;-0.974;2023-08-12T11:52:20;99938.56;;;20.87;100.00
51439;BME280;38816;51.142;-0.974;2023-08-12T11:54:46;99931.56;;;21.15;100.00
51439;BME280;38816;51.142;-0.974;2023-08-12T11:57:11;99932.75;;;21.35;100.00
51439;BME280;38816;51.142;-0.974;2023-08-12T11:59:37;99933.81;;;21.81;100.00
51439;BME280;38816;51.142;-0.974;2023-08-12T12:02:03;99944.69;;;22.43;100.00
51439;BME280;38816;51.142;-0.974;2023-08-12T12:04:31;99932.69;;;22.60;98.43
51439;BME280;38816;51.142;-0.974;2023-08-12T12:06:57;99942.94;;;22.42;97.84
51439;BME280;38816;51.142;-0.974;2023-08-12T12:09:22;99947.47;;;22.39;98.65
51439;BME280;38816;51.142;-0.974;2023-08-12T12:11:52;99941.69;;;22.76;96.85
51439;BME280;38816;51.142;-0.974;2023-08-12T12:14:20;99945.50;;;23.13;93.68
51439;BME280;38816;51.142;-0.974;2023-08-12T12:16:48;99945.63;;;23.32;91.58
51439;BME280;38816;51.142;-0.974;2023-08-12T12:19:16;99951.09;;;23.47;90.91
51439;BME280;38816;51.142;-0.974;2023-08-12T12:21:43;99947.56;;;23.48;84.86
51439;BME280;38816;51.142;-0.974;2023-08-12T12:24:09;99952.41;;;23.58;86.75
51439;BME280;38816;51.142;-0.974;2023-08-12T12:26:35;99950.22;;;23.89;84.61
51439;BME280;38816;51.142;-0.974;2023-08-12T12:29:02;99954.41;;;23.73;81.34
51439;BME280;38816;51.142;-0.974;2023-08-12T12:31:28;99955.16;;;23.34;84.05
51439;BME280;38816;51.142;-0.974;2023-08-12T12:33:54;99960.97;;;22.73;85.09
51439;BME280;38816;51.142;-0.974;2023-08-12T12:36:19;99969.03;;;21.95;87.47
51439;BME280;38816;51.142;-0.974;2023-08-12T12:38:45;99964.31;;;21.27;95.29
51439;BME280;38816;51.142;-0.974;2023-08-12T12:41:10;99966.59;;;20.82;100.00